sensor_id;sensor_type;location;lat;lon;timestamp;P1;durP1;ratioP1;P2;durP2;ratioP2
76167;SDS011;64927;48.214;16.378;2023-05-14T00:00:44;15.77;;;10.90;;
76167;SDS011;64927;48.214;16.378;2023-05-14T00:03:13;22.35;;;16.45;;
76167;SDS011;64927;48.214;16.378;2023-05-14T00:05:38;15.40;;;10.20;;
76167;SDS011;64927;48.214;16.378;2023-05-14T00:08:05;13.40;;;10.18;;
76167;SDS011;64927;48.214;16.378;2023-05-14T00:10:30;14.40;;;10.40;;
76167;SDS011;64927;48.214;16.378;2023-05-14T00:13:01;16.75;;;10.55;;
76167;SDS011;64927;48.214;16.378;2023-05-14T00:15:29;19.05;;;10.52;;
76167;SDS011;64927;48.214;16.378;2023-05-14T00:17:54;18.83;;;10.95;;
76167;SDS011;64927;48.214;16.378;2023-05-14T00:20:20;13.30;;;9.23;;
76167;SDS011;64927;48.214;16.378;2023-05-14T00:22:46;13.93;;;9.95;;
76167;SDS011;64927;48.214;16.378;2023-05-14T00:25:11;15.88;;;10.48;;
76167;SDS011;64927;48.214;16.378;2023-05-14T00:27:39;14.85;;;9.05;;
76167;SDS011;64927;48.214;16.378;2023-05-14T00:30:05;18.48;;;9.02;;
76167;SDS011;64927;48.214;16.378;2023-05-14T00:32:31;14.10;;;10.32;;
76167;SDS011;64927;48.214;16.378;2023-05-14T00:34:57;15.95;;;10.63;;
76167;SDS011;64927;48.214;16.378;2023-05-14T00:37:23;16.83;;;9.80;;
76167;SDS011;64927;48.214;16.378;2023-05-14T00:39:48;18.45;;;11.32;;
76167;SDS011;64927;48.214;16.378;2023-05-14T00:42:14;13.15;;;9.48;;
76167;SDS011;64927;48.214;16.378;2023-05-14T00:44:39;14.18;;;10.13;;
76167;SDS011;64927;48.214;16.378;2023-05-14T00:47:05;19.13;;;11.30;;
76167;SDS011;64927;48.214;16.378;2023-05-14T00:49:32;18.30;;;12.57;;
76167;SDS011;64927;48.214;16.378;2023-05-14T00:51:58;17.55;;;11.05;;
76167;SDS011;64927;48.214;16.378;2023-05-14T00:54:24;21.38;;;10.95;;
76167;SDS011;64927;48.214;16.378;2023-05-14T00:56:51;17.67;;;10.40;;
76167;SDS011;64927;48.214;16.378;2023-05-14T00:59:18;17.75;;;11.27;;
76167;SDS011;64927;48.214;16.378;2023-05-14T01:01:43;19.05;;;11.95;;
76167;SDS011;64927;48.214;16.378;2023-05-14T01:04:09;18.23;;;11.30;;
76167;SDS011;64927;48.214;16.378;2023-05-14T01:09:07;17.85;;;11.35;;
76167;SDS011;64927;48.214;16.378;2023-05-14T01:11:54;18.17;;;11.10;;
76167;SDS011;64927;48.214;16.378;2023-05-14T01:14:46;21.65;;;11.82;;
76167;SDS011;64927;48.214;16.378;2023-05-14T01:17:26;16.93;;;11.77;;
76167;SDS011;64927;48.214;16.378;2023-05-14T01:19:54;17.65;;;11.57;;
76167;SDS011;64927;48.214;16.378;2023-05-14T01:22:21;19.75;;;11.23;;
76167;SDS011;64927;48.214;16.378;2023-05-14T01:24:47;18.85;;;12.27;;
76167;SDS011;64927;48.214;16.378;2023-05-14T01:27:17;17.55;;;11.32;;
76167;SDS011;64927;48.214;16.378;2023-05-14T01:30:02;14.98;;;10.93;;
76167;SDS011;64927;48.214;16.378;2023-05-14T01:32:36;16.10;;;11.32;;
76167;SDS011;64927;48.214;16.378;2023-05-14T01:35:03;20.42;;;11.52;;
76167;SDS011;64927;48.214;16.378;2023-05-14T01:37:34;17.25;;;11.00;;
76167;SDS011;64927;48.214;16.378;2023-05-14T01:40:01;16.40;;;10.55;;
76167;SDS011;64927;48.214;16.378;2023-05-14T01:42:27;17.35;;;11.05;;
76167;SDS011;64927;48.214;16.378;2023-05-14T01:44:53;16.02;;;11.23;;
76167;SDS011;64927;48.214;16.378;2023-05-14T01:47:22;17.25;;;10.88;;
76167;SDS011;64927;48.214;16.378;2023-05-14T01:49:48;15.68;;;11.88;;
76167;SDS011;64927;48.214;16.378;2023-05-14T01:52:13;15.45;;;10.00;;
76167;SDS011;64927;48.214;16.378;2023-05-14T01:54:39;15.48;;;10.55;;
76167;SDS011;64927;48.214;16.378;2023-05-14T01:57:05;16.15;;;10.70;;
76167;SDS011;64927;48.214;16.378;2023-05-14T01:59:30;13.02;;;10.05;;
76167;SDS011;64927;48.214;16.378;2023-05-14T02:01:56;14.35;;;11.43;;
76167;SDS011;64927;48.214;16.378;2023-05-14T02:04:21;16.00;;;10.88;;
76167;SDS011;64927;48.214;16.378;2023-05-14T02:06:47;14.77;;;9.80;;
76167;SDS011;64927;48.214;16.378;2023-05-14T02:09:12;13.90;;;10.73;;
76167;SDS011;64927;48.214;16.378;2023-05-14T02:11:38;13.93;;;9.68;;
76167;SDS011;64927;48.214;16.378;2023-05-14T02:14:04;22.73;;;11.38;;
76167;SDS011;64927;48.214;16.378;2023-05-14T02:16:30;12.68;;;9.75;;
76167;SDS011;64927;48.214;16.378;2023-05-14T02:18:57;15.05;;;9.55;;
76167;SDS011;64927;48.214;16.378;2023-05-14T02:21:25;14.43;;;10.60;;
76167;SDS011;64927;48.214;16.378;2023-05-14T02:23:51;17.70;;;10.25;;
76167;SDS011;64927;48.214;16.378;2023-05-14T02:26:16;14.77;;;10.00;;
76167;SDS011;64927;48.214;16.378;2023-05-14T02:28:42;14.48;;;9.63;;
76167;SDS011;64927;48.214;16.378;2023-05-14T02:31:08;11.32;;;8.82;;
76167;SDS011;64927;48.214;16.378;2023-05-14T02:33:36;14.30;;;9.18;;
76167;SDS011;64927;48.214;16.378;2023-05-14T02:36:01;12.32;;;8.75;;
76167;SDS011;64927;48.214;16.378;2023-05-14T02:38:27;14.85;;;9.85;;
76167;SDS011;64927;48.214;16.378;2023-05-14T02:40:55;10.45;;;8.65;;
76167;SDS011;64927;48.214;16.378;2023-05-14T02:43:21;12.13;;;8.93;;
76167;SDS011;64927;48.214;16.378;2023-05-14T02:45:46;13.65;;;9.48;;
76167;SDS011;64927;48.214;16.378;2023-05-14T02:48:12;14.30;;;9.85;;
76167;SDS011;64927;48.214;16.378;2023-05-14T02:50:38;12.65;;;9.65;;
76167;SDS011;64927;48.214;16.378;2023-05-14T02:53:03;15.68;;;10.57;;
76167;SDS011;64927;48.214;16.378;2023-05-14T02:55:29;18.15;;;9.65;;
76167;SDS011;64927;48.214;16.378;2023-05-14T02:57:57;14.00;;;10.23;;
76167;SDS011;64927;48.214;16.378;2023-05-14T03:00:25;26.92;;;10.40;;
76167;SDS011;64927;48.214;16.378;2023-05-14T03:02:53;13.73;;;10.07;;
76167;SDS011;64927;48.214;16.378;2023-05-14T03:05:18;12.30;;;9.38;;
76167;SDS011;64927;48.214;16.378;2023-05-14T03:07:44;12.80;;;10.02;;
76167;SDS011;64927;48.214;16.378;2023-05-14T03:10:10;12.40;;;8.93;;
76167;SDS011;64927;48.214;16.378;2023-05-14T03:12:38;12.52;;;9.65;;
76167;SDS011;64927;48.214;16.378;2023-05-14T03:15:03;13.13;;;10.10;;
76167;SDS011;64927;48.214;16.378;2023-05-14T03:17:29;11.73;;;9.23;;
76167;SDS011;64927;48.214;16.378;2023-05-14T03:19:55;12.65;;;10.05;;
76167;SDS011;64927;48.214;16.378;2023-05-14T03:22:20;12.45;;;9.55;;
76167;SDS011;64927;48.214;16.378;2023-05-14T03:24:48;13.05;;;9.48;;
76167;SDS011;64927;48.214;16.378;2023-05-14T03:27:14;10.73;;;8.38;;
76167;SDS011;64927;48.214;16.378;2023-05-14T03:29:39;11.52;;;9.00;;
76167;SDS011;64927;48.214;16.378;2023-05-14T03:32:07;12.95;;;8.77;;
76167;SDS011;64927;48.214;16.378;2023-05-14T03:34:33;12.77;;;8.77;;
76167;SDS011;64927;48.214;16.378;2023-05-14T03:36:58;14.68;;;9.10;;
76167;SDS011;64927;48.214;16.378;2023-05-14T03:39:26;9.43;;;7.40;;
76167;SDS011;64927;48.214;16.378;2023-05-14T03:41:52;11.82;;;8.18;;
76167;SDS011;64927;48.214;16.378;2023-05-14T03:44:18;11.10;;;8.52;;
76167;SDS011;64927;48.214;16.378;2023-05-14T03:46:43;10.82;;;8.02;;
76167;SDS011;64927;48.214;16.378;2023-05-14T03:49:09;11.05;;;7.38;;
76167;SDS011;64927;48.214;16.378;2023-05-14T03:51:35;10.40;;;8.02;;
76167;SDS011;64927;48.214;16.378;2023-05-14T03:54:02;14.57;;;8.80;;
76167;SDS011;64927;48.214;16.378;2023-05-14T03:56:30;12.70;;;8.15;;
76167;SDS011;64927;48.214;16.378;2023-05-14T03:58:56;10.02;;;7.88;;
76167;SDS011;64927;48.214;16.378;2023-05-14T04:01:21;14.25;;;9.93;;
76167;SDS011;64927;48.214;16.378;2023-05-14T04:03:47;9.68;;;8.23;;
76167;SDS011;64927;48.214;16.378;2023-05-14T04:06:12;11.70;;;7.95;;
76167;SDS011;64927;48.214;16.378;2023-05-14T04:08:38;11.27;;;8.10;;
76167;SDS011;64927;48.214;16.378;2023-05-14T04:11:04;9.80;;;7.38;;
76167;SDS011;64927;48.214;16.378;2023-05-14T04:13:29;10.35;;;8.60;;
76167;SDS011;64927;48.214;16.378;2023-05-14T04:15:55;12.35;;;9.70;;
76167;SDS011;64927;48.214;16.378;2023-05-14T04:18:20;13.80;;;9.77;;
76167;SDS011;64927;48.214;16.378;2023-05-14T04:20:46;15.30;;;10.05;;
76167;SDS011;64927;48.214;16.378;2023-05-14T04:23:12;12.70;;;10.38;;
76167;SDS011;64927;48.214;16.378;2023-05-14T04:25:37;11.55;;;9.20;;
76167;SDS011;64927;48.214;16.378;2023-05-14T04:28:05;13.13;;;9.93;;
76167;SDS011;64927;48.214;16.378;2023-05-14T04:30:33;10.68;;;8.50;;
76167;SDS011;64927;48.214;16.378;2023-05-14T04:32:59;10.00;;;8.32;;
76167;SDS011;64927;48.214;16.378;2023-05-14T04:35:25;11.10;;;8.23;;
76167;SDS011;64927;48.214;16.378;2023-05-14T04:37:53;11.73;;;8.18;;
76167;SDS011;64927;48.214;16.378;2023-05-14T04:40:18;11.68;;;8.38;;
76167;SDS011;64927;48.214;16.378;2023-05-14T04:42:44;12.38;;;8.75;;
76167;SDS011;64927;48.214;16.378;2023-05-14T04:45:12;12.18;;;7.47;;
76167;SDS011;64927;48.214;16.378;2023-05-14T04:47:38;11.52;;;7.22;;
76167;SDS011;64927;48.214;16.378;2023-05-14T04:50:08;10.00;;;7.45;;
76167;SDS011;64927;48.214;16.378;2023-05-14T04:52:34;10.55;;;7.47;;
76167;SDS011;64927;48.214;16.378;2023-05-14T04:55:00;15.70;;;6.85;;
76167;SDS011;64927;48.214;16.378;2023-05-14T04:57:25;8.10;;;6.25;;
76167;SDS011;64927;48.214;16.378;2023-05-14T04:59:51;10.02;;;6.55;;
76167;SDS011;64927;48.214;16.378;2023-05-14T05:02:17;12.07;;;6.60;;
76167;SDS011;64927;48.214;16.378;2023-05-14T05:04:42;8.70;;;6.85;;
76167;SDS011;64927;48.214;16.378;2023-05-14T05:07:11;9.05;;;6.70;;
76167;SDS011;64927;48.214;16.378;2023-05-14T05:09:37;10.18;;;7.07;;
76167;SDS011;64927;48.214;16.378;2023-05-14T05:12:03;8.57;;;6.63;;
76167;SDS011;64927;48.214;16.378;2023-05-14T05:14:31;10.43;;;7.20;;
76167;SDS011;64927;48.214;16.378;2023-05-14T05:16:57;7.68;;;5.75;;
76167;SDS011;64927;48.214;16.378;2023-05-14T05:19:23;10.27;;;6.20;;
76167;SDS011;64927;48.214;16.378;2023-05-14T05:21:51;10.40;;;6.43;;
76167;SDS011;64927;48.214;16.378;2023-05-14T05:24:16;6.93;;;5.97;;
76167;SDS011;64927;48.214;16.378;2023-05-14T05:26:42;10.32;;;7.03;;
76167;SDS011;64927;48.214;16.378;2023-05-14T05:29:08;11.25;;;6.20;;
76167;SDS011;64927;48.214;16.378;2023-05-14T05:31:33;7.75;;;6.68;;
76167;SDS011;64927;48.214;16.378;2023-05-14T05:34:01;10.43;;;7.20;;
76167;SDS011;64927;48.214;16.378;2023-05-14T05:36:27;7.80;;;6.05;;
76167;SDS011;64927;48.214;16.378;2023-05-14T05:38:58;9.77;;;6.55;;
76167;SDS011;64927;48.214;16.378;2023-05-14T05:41:26;9.07;;;6.20;;
76167;SDS011;64927;48.214;16.378;2023-05-14T05:43:54;11.27;;;6.80;;
76167;SDS011;64927;48.214;16.378;2023-05-14T05:46:20;8.82;;;6.63;;
76167;SDS011;64927;48.214;16.378;2023-05-14T05:48:45;11.18;;;6.50;;
76167;SDS011;64927;48.214;16.378;2023-05-14T05:51:11;9.18;;;5.95;;
76167;SDS011;64927;48.214;16.378;2023-05-14T05:53:38;7.47;;;6.07;;
76167;SDS011;64927;48.214;16.378;2023-05-14T05:56:03;8.98;;;5.55;;
76167;SDS011;64927;48.214;16.378;2023-05-14T05:58:30;7.90;;;5.97;;
76167;SDS011;64927;48.214;16.378;2023-05-14T06:00:55;9.65;;;6.50;;
76167;SDS011;64927;48.214;16.378;2023-05-14T06:03:22;8.00;;;5.85;;
76167;SDS011;64927;48.214;16.378;2023-05-14T06:05:47;8.30;;;5.80;;
76167;SDS011;64927;48.214;16.378;2023-05-14T06:08:13;7.80;;;6.13;;
76167;SDS011;64927;48.214;16.378;2023-05-14T06:10:39;8.93;;;6.57;;
76167;SDS011;64927;48.214;16.378;2023-05-14T06:13:06;10.07;;;6.15;;
76167;SDS011;64927;48.214;16.378;2023-05-14T06:15:32;14.27;;;6.28;;
76167;SDS011;64927;48.214;16.378;2023-05-14T06:18:00;9.18;;;6.53;;
76167;SDS011;64927;48.214;16.378;2023-05-14T06:20:25;8.00;;;6.05;;
76167;SDS011;64927;48.214;16.378;2023-05-14T06:22:51;9.30;;;6.35;;
76167;SDS011;64927;48.214;16.378;2023-05-14T06:25:17;10.02;;;6.07;;
76167;SDS011;64927;48.214;16.378;2023-05-14T06:27:45;8.48;;;6.03;;
76167;SDS011;64927;48.214;16.378;2023-05-14T06:30:13;8.55;;;6.57;;
76167;SDS011;64927;48.214;16.378;2023-05-14T06:32:47;8.88;;;6.63;;
76167;SDS011;64927;48.214;16.378;2023-05-14T06:35:15;9.75;;;6.75;;
76167;SDS011;64927;48.214;16.378;2023-05-14T06:37:42;7.75;;;6.00;;
76167;SDS011;64927;48.214;16.378;2023-05-14T06:40:08;11.77;;;6.65;;
76167;SDS011;64927;48.214;16.378;2023-05-14T06:42:34;8.00;;;5.80;;
76167;SDS011;64927;48.214;16.378;2023-05-14T06:45:00;7.70;;;5.90;;
76167;SDS011;64927;48.214;16.378;2023-05-14T06:47:26;8.05;;;5.75;;
76167;SDS011;64927;48.214;16.378;2023-05-14T06:49:54;9.57;;;6.90;;
76167;SDS011;64927;48.214;16.378;2023-05-14T06:52:22;9.18;;;6.85;;
76167;SDS011;64927;48.214;16.378;2023-05-14T06:54:51;15.82;;;6.68;;
76167;SDS011;64927;48.214;16.378;2023-05-14T06:57:18;8.05;;;5.82;;
76167;SDS011;64927;48.214;16.378;2023-05-14T06:59:45;11.60;;;7.28;;
76167;SDS011;64927;48.214;16.378;2023-05-14T07:02:12;10.43;;;7.45;;
76167;SDS011;64927;48.214;16.378;2023-05-14T07:04:38;11.00;;;7.70;;
76167;SDS011;64927;48.214;16.378;2023-05-14T07:07:04;11.70;;;7.97;;
76167;SDS011;64927;48.214;16.378;2023-05-14T07:09:29;8.48;;;6.40;;
76167;SDS011;64927;48.214;16.378;2023-05-14T07:11:55;8.77;;;6.78;;
76167;SDS011;64927;48.214;16.378;2023-05-14T07:14:21;8.77;;;7.15;;
76167;SDS011;64927;48.214;16.378;2023-05-14T07:16:46;9.45;;;7.53;;
76167;SDS011;64927;48.214;16.378;2023-05-14T07:19:12;9.95;;;7.20;;
76167;SDS011;64927;48.214;16.378;2023-05-14T07:21:37;12.90;;;8.05;;
76167;SDS011;64927;48.214;16.378;2023-05-14T07:24:03;13.60;;;8.48;;
76167;SDS011;64927;48.214;16.378;2023-05-14T07:26:32;9.85;;;7.28;;
76167;SDS011;64927;48.214;16.378;2023-05-14T07:28:57;13.10;;;7.22;;
76167;SDS011;64927;48.214;16.378;2023-05-14T07:31:25;8.73;;;6.78;;
76167;SDS011;64927;48.214;16.378;2023-05-14T07:33:51;11.70;;;8.07;;
76167;SDS011;64927;48.214;16.378;2023-05-14T07:36:17;12.15;;;6.70;;
76167;SDS011;64927;48.214;16.378;2023-05-14T07:38:42;10.77;;;7.53;;
76167;SDS011;64927;48.214;16.378;2023-05-14T07:41:08;13.30;;;6.53;;
76167;SDS011;64927;48.214;16.378;2023-05-14T07:43:35;9.45;;;5.78;;
76167;SDS011;64927;48.214;16.378;2023-05-14T07:46:02;7.72;;;5.70;;
76167;SDS011;64927;48.214;16.378;2023-05-14T07:48:28;10.70;;;6.55;;
76167;SDS011;64927;48.214;16.378;2023-05-14T07:50:56;12.43;;;6.63;;
76167;SDS011;64927;48.214;16.378;2023-05-14T07:53:21;11.25;;;6.28;;
76167;SDS011;64927;48.214;16.378;2023-05-14T07:55:48;9.73;;;6.75;;
76167;SDS011;64927;48.214;16.378;2023-05-14T07:58:17;10.00;;;6.78;;
76167;SDS011;64927;48.214;16.378;2023-05-14T08:00:42;10.27;;;6.45;;
76167;SDS011;64927;48.214;16.378;2023-05-14T08:03:08;10.23;;;7.00;;
76167;SDS011;64927;48.214;16.378;2023-05-14T08:05:33;9.45;;;6.55;;
76167;SDS011;64927;48.214;16.378;2023-05-14T08:07:59;7.25;;;5.47;;
76167;SDS011;64927;48.214;16.378;2023-05-14T08:10:27;11.60;;;6.72;;
76167;SDS011;64927;48.214;16.378;2023-05-14T08:12:52;8.25;;;5.47;;
76167;SDS011;64927;48.214;16.378;2023-05-14T08:15:20;9.35;;;6.05;;
76167;SDS011;64927;48.214;16.378;2023-05-14T08:17:48;11.35;;;7.22;;
76167;SDS011;64927;48.214;16.378;2023-05-14T08:20:14;11.63;;;6.57;;
76167;SDS011;64927;48.214;16.378;2023-05-14T08:22:39;7.40;;;5.70;;
76167;SDS011;64927;48.214;16.378;2023-05-14T08:25:08;7.35;;;5.57;;
76167;SDS011;64927;48.214;16.378;2023-05-14T08:27:33;8.15;;;6.28;;
76167;SDS011;64927;48.214;16.378;2023-05-14T08:30:01;7.63;;;5.57;;
76167;SDS011;64927;48.214;16.378;2023-05-14T08:32:28;8.98;;;6.35;;
76167;SDS011;64927;48.214;16.378;2023-05-14T08:34:56;9.27;;;6.40;;
76167;SDS011;64927;48.214;16.378;2023-05-14T08:37:21;10.10;;;5.70;;
76167;SDS011;64927;48.214;16.378;2023-05-14T08:39:47;10.63;;;6.93;;
76167;SDS011;64927;48.214;16.378;2023-05-14T08:42:13;10.52;;;6.63;;
76167;SDS011;64927;48.214;16.378;2023-05-14T08:44:48;9.68;;;7.25;;
76167;SDS011;64927;48.214;16.378;2023-05-14T08:47:17;8.68;;;5.80;;
76167;SDS011;64927;48.214;16.378;2023-05-14T08:49:46;8.60;;;6.65;;
76167;SDS011;64927;48.214;16.378;2023-05-14T08:52:16;12.48;;;7.50;;
76167;SDS011;64927;48.214;16.378;2023-05-14T08:54:44;9.13;;;6.60;;
76167;SDS011;64927;48.214;16.378;2023-05-14T08:57:10;10.65;;;6.20;;
76167;SDS011;64927;48.214;16.378;2023-05-14T08:59:39;14.70;;;8.05;;
76167;SDS011;64927;48.214;16.378;2023-05-14T09:02:05;10.27;;;7.20;;
76167;SDS011;64927;48.214;16.378;2023-05-14T09:04:36;8.20;;;6.03;;
76167;SDS011;64927;48.214;16.378;2023-05-14T09:07:02;9.57;;;6.80;;
76167;SDS011;64927;48.214;16.378;2023-05-14T09:09:31;9.73;;;5.93;;
76167;SDS011;64927;48.214;16.378;2023-05-14T09:11:57;9.15;;;6.60;;
76167;SDS011;64927;48.214;16.378;2023-05-14T09:14:23;8.25;;;6.15;;
76167;SDS011;64927;48.214;16.378;2023-05-14T09:16:49;10.05;;;6.43;;
76167;SDS011;64927;48.214;16.378;2023-05-14T09:19:18;13.98;;;8.65;;
76167;SDS011;64927;48.214;16.378;2023-05-14T09:21:45;10.85;;;7.50;;
76167;SDS011;64927;48.214;16.378;2023-05-14T09:24:18;9.80;;;6.95;;
76167;SDS011;64927;48.214;16.378;2023-05-14T09:26:54;10.18;;;6.90;;
76167;SDS011;64927;48.214;16.378;2023-05-14T09:29:27;10.02;;;6.88;;
76167;SDS011;64927;48.214;16.378;2023-05-14T09:31:54;8.75;;;6.72;;
76167;SDS011;64927;48.214;16.378;2023-05-14T09:34:27;11.68;;;7.30;;
76167;SDS011;64927;48.214;16.378;2023-05-14T09:37:00;10.38;;;7.07;;
76167;SDS011;64927;48.214;16.378;2023-05-14T09:39:27;8.52;;;6.47;;
76167;SDS011;64927;48.214;16.378;2023-05-14T09:41:54;8.68;;;6.25;;
76167;SDS011;64927;48.214;16.378;2023-05-14T09:44:20;15.05;;;10.13;;
76167;SDS011;64927;48.214;16.378;2023-05-14T09:46:47;13.15;;;8.80;;
76167;SDS011;64927;48.214;16.378;2023-05-14T09:49:13;9.45;;;7.60;;
76167;SDS011;64927;48.214;16.378;2023-05-14T09:51:39;10.75;;;7.07;;
76167;SDS011;64927;48.214;16.378;2023-05-14T09:54:05;10.02;;;6.80;;
76167;SDS011;64927;48.214;16.378;2023-05-14T09:56:31;9.25;;;7.47;;
76167;SDS011;64927;48.214;16.378;2023-05-14T09:58:58;15.07;;;7.65;;
76167;SDS011;64927;48.214;16.378;2023-05-14T10:01:27;11.48;;;7.63;;
76167;SDS011;64927;48.214;16.378;2023-05-14T10:03:56;9.52;;;7.57;;
76167;SDS011;64927;48.214;16.378;2023-05-14T10:06:24;12.13;;;7.90;;
76167;SDS011;64927;48.214;16.378;2023-05-14T10:08:57;10.60;;;7.38;;
76167;SDS011;64927;48.214;16.378;2023-05-14T10:11:27;11.00;;;7.43;;
76167;SDS011;64927;48.214;16.378;2023-05-14T10:14:16;12.20;;;6.93;;
76167;SDS011;64927;48.214;16.378;2023-05-14T10:16:49;9.90;;;6.82;;
76167;SDS011;64927;48.214;16.378;2023-05-14T10:19:19;11.02;;;7.43;;
76167;SDS011;64927;48.214;16.378;2023-05-14T10:21:50;8.63;;;6.05;;
76167;SDS011;64927;48.214;16.378;2023-05-14T10:24:19;8.63;;;6.32;;
76167;SDS011;64927;48.214;16.378;2023-05-14T10:26:48;11.45;;;6.70;;
76167;SDS011;64927;48.214;16.378;2023-05-14T10:29:14;12.82;;;7.45;;
76167;SDS011;64927;48.214;16.378;2023-05-14T10:31:44;8.02;;;6.05;;
76167;SDS011;64927;48.214;16.378;2023-05-14T10:37:01;10.38;;;6.82;;
76167;SDS011;64927;48.214;16.378;2023-05-14T10:39:41;10.18;;;7.70;;
76167;SDS011;64927;48.214;16.378;2023-05-14T10:42:11;11.93;;;6.95;;
76167;SDS011;64927;48.214;16.378;2023-05-14T10:44:40;9.45;;;6.93;;
76167;SDS011;64927;48.214;16.378;2023-05-14T10:47:25;9.40;;;6.35;;
76167;SDS011;64927;48.214;16.378;2023-05-14T10:49:54;12.90;;;8.63;;
76167;SDS011;64927;48.214;16.378;2023-05-14T10:52:22;14.15;;;9.20;;
76167;SDS011;64927;48.214;16.378;2023-05-14T10:54:52;12.35;;;7.40;;
76167;SDS011;64927;48.214;16.378;2023-05-14T10:57:20;15.20;;;8.65;;
76167;SDS011;64927;48.214;16.378;2023-05-14T10:59:51;13.05;;;9.30;;
76167;SDS011;64927;48.214;16.378;2023-05-14T11:02:26;13.88;;;8.80;;
76167;SDS011;64927;48.214;16.378;2023-05-14T11:05:02;11.15;;;8.55;;
76167;SDS011;64927;48.214;16.378;2023-05-14T11:07:32;9.35;;;7.55;;
76167;SDS011;64927;48.214;16.378;2023-05-14T11:10:03;19.42;;;12.63;;
76167;SDS011;64927;48.214;16.378;2023-05-14T11:12:31;13.32;;;9.10;;
76167;SDS011;64927;48.214;16.378;2023-05-14T11:14:58;12.40;;;8.48;;
76167;SDS011;64927;48.214;16.378;2023-05-14T11:17:26;14.82;;;9.57;;
76167;SDS011;64927;48.214;16.378;2023-05-14T11:19:52;11.10;;;8.13;;
76167;SDS011;64927;48.214;16.378;2023-05-14T11:22:18;12.75;;;8.80;;
76167;SDS011;64927;48.214;16.378;2023-05-14T11:24:44;12.40;;;8.80;;
76167;SDS011;64927;48.214;16.378;2023-05-14T11:27:10;11.77;;;8.50;;
76167;SDS011;64927;48.214;16.378;2023-05-14T11:29:36;16.77;;;8.02;;
76167;SDS011;64927;48.214;16.378;2023-05-14T11:32:05;12.73;;;8.38;;
76167;SDS011;64927;48.214;16.378;2023-05-14T11:34:31;11.40;;;8.30;;
76167;SDS011;64927;48.214;16.378;2023-05-14T11:37:01;12.75;;;8.80;;
76167;SDS011;64927;48.214;16.378;2023-05-14T11:39:32;17.20;;;11.10;;
76167;SDS011;64927;48.214;16.378;2023-05-14T11:42:01;18.50;;;9.93;;
76167;SDS011;64927;48.214;16.378;2023-05-14T11:44:28;15.60;;;8.70;;
76167;SDS011;64927;48.214;16.378;2023-05-14T11:46:55;12.38;;;8.02;;
76167;SDS011;64927;48.214;16.378;2023-05-14T11:49:21;24.67;;;13.73;;
76167;SDS011;64927;48.214;16.378;2023-05-14T11:52:05;18.48;;;10.88;;
76167;SDS011;64927;48.214;16.378;2023-05-14T11:54:33;22.25;;;12.73;;
76167;SDS011;64927;48.214;16.378;2023-05-14T11:57:00;12.82;;;9.23;;
76167;SDS011;64927;48.214;16.378;2023-05-14T11:59:31;11.18;;;7.85;;
76167;SDS011;64927;48.214;16.378;2023-05-14T12:01:57;12.05;;;8.27;;
76167;SDS011;64927;48.214;16.378;2023-05-14T12:04:27;10.10;;;6.82;;
76167;SDS011;64927;48.214;16.378;2023-05-14T12:06:53;10.32;;;7.35;;
76167;SDS011;64927;48.214;16.378;2023-05-14T12:09:21;10.13;;;7.40;;
76167;SDS011;64927;48.214;16.378;2023-05-14T12:11:48;11.25;;;8.25;;
76167;SDS011;64927;48.214;16.378;2023-05-14T12:14:15;10.85;;;7.03;;
76167;SDS011;64927;48.214;16.378;2023-05-14T12:16:45;11.40;;;8.27;;
76167;SDS011;64927;48.214;16.378;2023-05-14T12:19:15;11.13;;;7.82;;
76167;SDS011;64927;48.214;16.378;2023-05-14T12:21:43;10.93;;;8.63;;
76167;SDS011;64927;48.214;16.378;2023-05-14T12:24:20;11.23;;;7.32;;
76167;SDS011;64927;48.214;16.378;2023-05-14T12:26:46;10.35;;;7.88;;
76167;SDS011;64927;48.214;16.378;2023-05-14T12:29:13;12.13;;;8.45;;
76167;SDS011;64927;48.214;16.378;2023-05-14T12:31:46;11.43;;;7.97;;
76167;SDS011;64927;48.214;16.378;2023-05-14T12:34:13;9.77;;;7.45;;
76167;SDS011;64927;48.214;16.378;2023-05-14T12:36:40;11.48;;;7.80;;
76167;SDS011;64927;48.214;16.378;2023-05-14T12:39:06;10.10;;;7.60;;
76167;SDS011;64927;48.214;16.378;2023-05-14T12:41:32;12.77;;;8.55;;
76167;SDS011;64927;48.214;16.378;2023-05-14T12:43:58;7.80;;;6.35;;
76167;SDS011;64927;48.214;16.378;2023-05-14T12:46:25;10.35;;;7.55;;
76167;SDS011;64927;48.214;16.378;2023-05-14T12:48:52;11.18;;;7.30;;
76167;SDS011;64927;48.214;16.378;2023-05-14T12:51:18;12.75;;;8.32;;
76167;SDS011;64927;48.214;16.378;2023-05-14T12:53:44;13.02;;;8.23;;
76167;SDS011;64927;48.214;16.378;2023-05-14T12:56:09;9.25;;;6.88;;
76167;SDS011;64927;48.214;16.378;2023-05-14T12:58:35;8.88;;;6.85;;
76167;SDS011;64927;48.214;16.378;2023-05-14T13:01:01;11.13;;;7.90;;
76167;SDS011;64927;48.214;16.378;2023-05-14T13:03:27;7.22;;;5.72;;
76167;SDS011;64927;48.214;16.378;2023-05-14T13:05:52;8.23;;;5.70;;
76167;SDS011;64927;48.214;16.378;2023-05-14T13:08:20;8.63;;;5.80;;
76167;SDS011;64927;48.214;16.378;2023-05-14T13:10:48;7.72;;;5.93;;
76167;SDS011;64927;48.214;16.378;2023-05-14T13:13:15;7.53;;;5.57;;
76167;SDS011;64927;48.214;16.378;2023-05-14T13:15:40;6.68;;;5.43;;
76167;SDS011;64927;48.214;16.378;2023-05-14T13:18:06;8.02;;;6.43;;
76167;SDS011;64927;48.214;16.378;2023-05-14T13:20:37;8.60;;;5.38;;
76167;SDS011;64927;48.214;16.378;2023-05-14T13:23:02;9.63;;;6.80;;
76167;SDS011;64927;48.214;16.378;2023-05-14T13:25:28;11.02;;;6.82;;
76167;SDS011;64927;48.214;16.378;2023-05-14T13:27:54;9.80;;;7.22;;
76167;SDS011;64927;48.214;16.378;2023-05-14T13:30:20;8.93;;;6.38;;
76167;SDS011;64927;48.214;16.378;2023-05-14T13:32:46;11.02;;;7.70;;
76167;SDS011;64927;48.214;16.378;2023-05-14T13:35:14;11.25;;;7.90;;
76167;SDS011;64927;48.214;16.378;2023-05-14T13:37:42;10.13;;;7.45;;
76167;SDS011;64927;48.214;16.378;2023-05-14T13:40:08;12.50;;;9.10;;
76167;SDS011;64927;48.214;16.378;2023-05-14T13:42:35;10.70;;;8.55;;
76167;SDS011;64927;48.214;16.378;2023-05-14T13:45:01;12.40;;;9.45;;
76167;SDS011;64927;48.214;16.378;2023-05-14T13:47:30;12.50;;;7.93;;
76167;SDS011;64927;48.214;16.378;2023-05-14T13:49:56;11.50;;;7.93;;
76167;SDS011;64927;48.214;16.378;2023-05-14T13:52:22;11.15;;;7.80;;
76167;SDS011;64927;48.214;16.378;2023-05-14T13:54:48;8.70;;;6.55;;
76167;SDS011;64927;48.214;16.378;2023-05-14T13:57:13;9.90;;;6.55;;
76167;SDS011;64927;48.214;16.378;2023-05-14T13:59:39;14.43;;;8.07;;
76167;SDS011;64927;48.214;16.378;2023-05-14T14:02:06;10.70;;;7.00;;
76167;SDS011;64927;48.214;16.378;2023-05-14T14:04:34;11.73;;;7.32;;
76167;SDS011;64927;48.214;16.378;2023-05-14T14:07:00;8.45;;;7.13;;
76167;SDS011;64927;48.214;16.378;2023-05-14T14:09:25;8.35;;;6.82;;
76167;SDS011;64927;48.214;16.378;2023-05-14T14:11:53;8.93;;;6.70;;
76167;SDS011;64927;48.214;16.378;2023-05-14T14:14:21;8.45;;;6.15;;
76167;SDS011;64927;48.214;16.378;2023-05-14T14:16:47;8.45;;;6.80;;
76167;SDS011;64927;48.214;16.378;2023-05-14T14:19:12;11.38;;;7.82;;
76167;SDS011;64927;48.214;16.378;2023-05-14T14:21:38;10.15;;;7.78;;
76167;SDS011;64927;48.214;16.378;2023-05-14T14:24:06;10.27;;;6.68;;
76167;SDS011;64927;48.214;16.378;2023-05-14T14:26:37;9.02;;;7.07;;
76167;SDS011;64927;48.214;16.378;2023-05-14T14:29:03;15.43;;;8.93;;